sensor_id;sensor_type;location;lat;lon;timestamp;temperature;humidity
1107;DHT22;540;49.448;8.612;2022-11-23T00:00:42;8.20;99.90
1107;DHT22;540;49.448;8.612;2022-11-23T00:03:13;7.70;99.90
1107;DHT22;540;49.448;8.612;2022-11-23T00:05:41;8.30;99.90
1107;DHT22;540;49.448;8.612;2022-11-23T00:08:10;8.30;99.90
1107;DHT22;540;49.448;8.612;2022-11-23T00:10:38;8.30;99.90
1107;DHT22;540;49.448;8.612;2022-11-23T00:13:05;8.20;99.90
1107;DHT22;540;49.448;8.612;2022-11-23T00:15:33;8.10;99.90
1107;DHT22;540;49.448;8.612;2022-11-23T00:18:01;8.00;99.90
1107;DHT22;540;49.448;8.612;2022-11-23T00:20:29;8.10;99.90
1107;DHT22;540;49.448;8.612;2022-11-23T00:22:57;8.20;99.90
1107;DHT22;540;49.448;8.612;2022-11-23T00:25:26;8.40;99.90
1107;DHT22;540;49.448;8.612;2022-11-23T00:27:53;8.30;99.90
1107;DHT22;540;49.448;8.612;2022-11-23T00:30:21;8.30;99.90
1107;DHT22;540;49.448;8.612;2022-11-23T00:32:49;8.40;99.90
1107;DHT22;540;49.448;8.612;2022-11-23T00:35:17;8.30;99.90
1107;DHT22;540;49.448;8.612;2022-11-23T00:37:44;8.40;99.90
1107;DHT22;540;49.448;8.612;2022-11-23T00:40:12;8.50;99.90
1107;DHT22;540;49.448;8.612;2022-11-23T00:42:42;8.30;99.90
1107;DHT22;540;49.448;8.612;2022-11-23T00:45:09;8.30;99.90
1107;DHT22;540;49.448;8.612;2022-11-23T00:47:37;8.30;99.90
1107;DHT22;540;49.448;8.612;2022-11-23T00:50:05;8.20;99.90
1107;DHT22;540;49.448;8.612;2022-11-23T00:52:33;8.50;99.90
1107;DHT22;540;49.448;8.612;2022-11-23T00:55:01;8.50;99.90
1107;DHT22;540;49.448;8.612;2022-11-23T00:57:29;8.30;99.90
1107;DHT22;540;49.448;8.612;2022-11-23T00:59:58;8.40;99.90
1107;DHT22;540;49.448;8.612;2022-11-23T01:02:26;8.30;99.90
1107;DHT22;540;49.448;8.612;2022-11-23T01:04:53;8.50;99.90
1107;DHT22;540;49.448;8.612;2022-11-23T01:07:21;8.30;99.90
1107;DHT22;540;49.448;8.612;2022-11-23T01:09:49;8.10;99.90
1107;DHT22;540;49.448;8.612;2022-11-23T01:12:17;8.30;99.90
1107;DHT22;540;49.448;8.612;2022-11-23T01:14:45;8.50;99.90
1107;DHT22;540;49.448;8.612;2022-11-23T01:17:14;8.20;99.90
1107;DHT22;540;49.448;8.612;2022-11-23T01:19:41;8.20;99.90
1107;DHT22;540;49.448;8.612;2022-11-23T01:22:09;8.30;99.90
1107;DHT22;540;49.448;8.612;2022-11-23T01:24:37;8.10;99.90
1107;DHT22;540;49.448;8.612;2022-11-23T01:27:05;8.20;99.90
1107;DHT22;540;49.448;8.612;2022-11-23T01:29:33;8.20;99.90
1107;DHT22;540;49.448;8.612;2022-11-23T01:32:00;8.20;99.90
1107;DHT22;540;49.448;8.612;2022-11-23T01:34:30;8.20;99.90
1107;DHT22;540;49.448;8.612;2022-11-23T01:36:58;8.30;99.90
1107;DHT22;540;49.448;8.612;2022-11-23T01:39:26;8.30;99.90
1107;DHT22;540;49.448;8.612;2022-11-23T01:41:53;8.40;99.90
1107;DHT22;540;49.448;8.612;2022-11-23T01:44:24;8.50;99.90
1107;DHT22;540;49.448;8.612;2022-11-23T01:46:53;8.40;99.90
1107;DHT22;540;49.448;8.612;2022-11-23T01:49:22;8.50;99.90
1107;DHT22;540;49.448;8.612;2022-11-23T01:51:53;8.30;99.90
1107;DHT22;540;49.448;8.612;2022-11-23T01:54:26;8.50;99.90
1107;DHT22;540;49.448;8.612;2022-11-23T01:56:59;8.50;99.90
1107;DHT22;540;49.448;8.612;2022-11-23T01:59:29;8.30;99.90
1107;DHT22;540;49.448;8.612;2022-11-23T02:02:00;8.40;99.90
1107;DHT22;540;49.448;8.612;2022-11-23T02:04:31;8.30;99.90
1107;DHT22;540;49.448;8.612;2022-11-23T02:07:02;8.20;99.90
1107;DHT22;540;49.448;8.612;2022-11-23T02:09:32;8.30;99.90
1107;DHT22;540;49.448;8.612;2022-11-23T02:12:01;8.30;99.90
1107;DHT22;540;49.448;8.612;2022-11-23T02:14:29;8.30;99.90
1107;DHT22;540;49.448;8.612;2022-11-23T02:16:57;8.30;99.90
1107;DHT22;540;49.448;8.612;2022-11-23T02:19:30;8.20;99.90
1107;DHT22;540;49.448;8.612;2022-11-23T02:22:03;8.40;99.90
1107;DHT22;540;49.448;8.612;2022-11-23T02:24:35;8.40;99.90
1107;DHT22;540;49.448;8.612;2022-11-23T02:27:06;8.30;99.90
1107;DHT22;540;49.448;8.612;2022-11-23T02:29:34;8.30;99.90
1107;DHT22;540;49.448;8.612;2022-11-23T02:32:02;8.30;99.90
1107;DHT22;540;49.448;8.612;2022-11-23T02:34:30;8.20;99.90
1107;DHT22;540;49.448;8.612;2022-11-23T02:36:58;8.40;99.90
1107;DHT22;540;49.448;8.612;2022-11-23T02:39:30;8.40;99.90
1107;DHT22;540;49.448;8.612;2022-11-23T02:41:58;8.40;99.90
1107;DHT22;540;49.448;8.612;2022-11-23T02:44:34;8.50;99.90
1107;DHT22;540;49.448;8.612;2022-11-23T02:47:03;8.30;99.90
1107;DHT22;540;49.448;8.612;2022-11-23T02:49:31;7.90;99.90
1107;DHT22;540;49.448;8.612;2022-11-23T02:52:00;8.40;99.90
1107;DHT22;540;49.448;8.612;2022-11-23T02:54:28;8.20;99.90
1107;DHT22;540;49.448;8.612;2022-11-23T02:56:56;8.30;99.90
1107;DHT22;540;49.448;8.612;2022-11-23T02:59:24;8.20;99.90
1107;DHT22;540;49.448;8.612;2022-11-23T03:01:53;8.10;99.90
1107;DHT22;540;49.448;8.612;2022-11-23T03:04:20;8.40;99.90
1107;DHT22;540;49.448;8.612;2022-11-23T03:06:53;8.50;99.90
1107;DHT22;540;49.448;8.612;2022-11-23T03:09:21;8.30;99.90
1107;DHT22;540;49.448;8.612;2022-11-23T03:11:49;8.40;99.90
1107;DHT22;540;49.448;8.612;2022-11-23T03:14:17;8.30;99.90
1107;DHT22;540;49.448;8.612;2022-11-23T03:16:44;8.20;99.90
1107;DHT22;540;49.448;8.612;2022-11-23T03:19:14;8.30;99.90
1107;DHT22;540;49.448;8.612;2022-11-23T03:21:42;8.50;99.90
1107;DHT22;540;49.448;8.612;2022-11-23T03:24:09;8.50;99.90
1107;DHT22;540;49.448;8.612;2022-11-23T03:26:37;8.60;99.90
1107;DHT22;540;49.448;8.612;2022-11-23T03:29:05;8.30;99.90
1107;DHT22;540;49.448;8.612;2022-11-23T03:31:33;8.30;99.90
1107;DHT22;540;49.448;8.612;2022-11-23T03:34:01;8.40;99.90
1107;DHT22;540;49.448;8.612;2022-11-23T03:36:30;8.40;99.90
1107;DHT22;540;49.448;8.612;2022-11-23T03:38:57;8.60;99.90
1107;DHT22;540;49.448;8.612;2022-11-23T03:41:25;8.20;99.90
1107;DHT22;540;49.448;8.612;2022-11-23T03:43:53;8.60;99.90
1107;DHT22;540;49.448;8.612;2022-11-23T03:46:21;8.20;99.90
1107;DHT22;540;49.448;8.612;2022-11-23T03:48:49;8.40;99.90
1107;DHT22;540;49.448;8.612;2022-11-23T03:51:16;8.40;99.90
1107;DHT22;540;49.448;8.612;2022-11-23T03:53:46;8.30;99.90
1107;DHT22;540;49.448;8.612;2022-11-23T03:56:14;8.30;99.90
1107;DHT22;540;49.448;8.612;2022-11-23T03:58:42;8.40;99.90
1107;DHT22;540;49.448;8.612;2022-11-23T04:01:09;8.40;99.90
1107;DHT22;540;49.448;8.612;2022-11-23T04:03:37;8.40;99.90
1107;DHT22;540;49.448;8.612;2022-11-23T04:06:05;8.30;99.90
1107;DHT22;540;49.448;8.612;2022-11-23T04:08:33;8.40;99.90
1107;DHT22;540;49.448;8.612;2022-11-23T04:11:02;8.30;99.90
1107;DHT22;540;49.448;8.612;2022-11-23T04:13:30;8.20;99.90
1107;DHT22;540;49.448;8.612;2022-11-23T04:15:58;8.30;99.90
1107;DHT22;540;49.448;8.612;2022-11-23T04:18:26;8.20;99.90
1107;DHT22;540;49.448;8.612;2022-11-23T04:20:54;8.20;99.90
1107;DHT22;540;49.448;8.612;2022-11-23T04:23:21;8.40;99.90
1107;DHT22;540;49.448;8.612;2022-11-23T04:25:49;8.20;99.90
1107;DHT22;540;49.448;8.612;2022-11-23T04:28:18;8.40;99.90
1107;DHT22;540;49.448;8.612;2022-11-23T04:30:46;8.40;99.90
1107;DHT22;540;49.448;8.612;2022-11-23T04:33:14;8.50;99.90
1107;DHT22;540;49.448;8.612;2022-11-23T04:35:42;8.40;99.90
1107;DHT22;540;49.448;8.612;2022-11-23T04:38:10;8.50;99.90
1107;DHT22;540;49.448;8.612;2022-11-23T04:40:38;8.30;99.90
1107;DHT22;540;49.448;8.612;2022-11-23T04:43:05;8.60;99.90
1107;DHT22;540;49.448;8.612;2022-11-23T04:45:38;8.60;99.90
1107;DHT22;540;49.448;8.612;2022-11-23T04:48:06;8.50;99.90
1107;DHT22;540;49.448;8.612;2022-11-23T04:50:34;8.40;99.90
1107;DHT22;540;49.448;8.612;2022-11-23T04:53:06;8.40;99.90
1107;DHT22;540;49.448;8.612;2022-11-23T04:55:34;8.40;99.90
1107;DHT22;540;49.448;8.612;2022-11-23T04:58:02;8.30;99.90
1107;DHT22;540;49.448;8.612;2022-11-23T05:00:30;8.20;99.90
1107;DHT22;540;49.448;8.612;2022-11-23T05:03:00;8.50;99.90
1107;DHT22;540;49.448;8.612;2022-11-23T05:05:27;8.10;99.90
1107;DHT22;540;49.448;8.612;2022-11-23T05:07:56;8.20;99.90
1107;DHT22;540;49.448;8.612;2022-11-23T05:10:24;8.40;99.90
1107;DHT22;540;49.448;8.612;2022-11-23T05:12:52;8.30;99.90
1107;DHT22;540;49.448;8.612;2022-11-23T05:15:20;8.30;99.90
1107;DHT22;540;49.448;8.612;2022-11-23T05:17:48;8.40;99.90
1107;DHT22;540;49.448;8.612;2022-11-23T05:20:21;8.40;99.90
1107;DHT22;540;49.448;8.612;2022-11-23T05:22:48;8.30;99.90
1107;DHT22;540;49.448;8.612;2022-11-23T05:25:16;8.10;99.90
1107;DHT22;540;49.448;8.612;2022-11-23T05:27:44;8.40;99.90
1107;DHT22;540;49.448;8.612;2022-11-23T05:30:13;8.30;99.90
1107;DHT22;540;49.448;8.612;2022-11-23T05:32:41;8.20;99.90
1107;DHT22;540;49.448;8.612;2022-11-23T05:35:09;8.20;99.90
1107;DHT22;540;49.448;8.612;2022-11-23T05:37:39;8.30;99.90
1107;DHT22;540;49.448;8.612;2022-11-23T05:40:08;8.10;99.90
1107;DHT22;540;49.448;8.612;2022-11-23T05:42:37;8.30;99.90
1107;DHT22;540;49.448;8.612;2022-11-23T05:45:05;8.20;99.90
1107;DHT22;540;49.448;8.612;2022-11-23T05:47:37;8.50;99.90
1107;DHT22;540;49.448;8.612;2022-11-23T05:50:06;8.60;99.90
1107;DHT22;540;49.448;8.612;2022-11-23T05:52:34;8.30;99.90
1107;DHT22;540;49.448;8.612;2022-11-23T05:55:04;8.50;99.90
1107;DHT22;540;49.448;8.612;2022-11-23T05:57:31;8.70;99.90
1107;DHT22;540;49.448;8.612;2022-11-23T05:59:59;8.40;99.90
1107;DHT22;540;49.448;8.612;2022-11-23T06:02:27;8.40;99.90
1107;DHT22;540;49.448;8.612;2022-11-23T06:04:55;8.50;99.90
1107;DHT22;540;49.448;8.612;2022-11-23T06:07:23;8.50;99.90
1107;DHT22;540;49.448;8.612;2022-11-23T06:09:51;8.60;99.90
1107;DHT22;540;49.448;8.612;2022-11-23T06:12:20;8.60;99.90
1107;DHT22;540;49.448;8.612;2022-11-23T06:14:48;8.50;99.90
1107;DHT22;540;49.448;8.612;2022-11-23T06:17:16;8.40;99.90
1107;DHT22;540;49.448;8.612;2022-11-23T06:19:43;8.40;99.90
1107;DHT22;540;49.448;8.612;2022-11-23T06:22:11;8.40;99.90
1107;DHT22;540;49.448;8.612;2022-11-23T06:24:40;8.60;99.90
1107;DHT22;540;49.448;8.612;2022-11-23T06:27:09;8.60;99.90
1107;DHT22;540;49.448;8.612;2022-11-23T06:29:44;8.30;99.90
1107;DHT22;540;49.448;8.612;2022-11-23T06:32:13;8.40;99.90
1107;DHT22;540;49.448;8.612;2022-11-23T06:34:41;8.30;99.90
1107;DHT22;540;49.448;8.612;2022-11-23T06:37:09;8.50;99.90
1107;DHT22;540;49.448;8.612;2022-11-23T06:39:37;8.30;99.90
1107;DHT22;540;49.448;8.612;2022-11-23T06:42:05;8.30;99.90
1107;DHT22;540;49.448;8.612;2022-11-23T06:44:54;8.10;99.90
1107;DHT22;540;49.448;8.612;2022-11-23T06:47:22;8.00;99.90
1107;DHT22;540;49.448;8.612;2022-11-23T06:49:52;7.80;99.90
1107;DHT22;540;49.448;8.612;2022-11-23T06:52:20;7.70;99.90
1107;DHT22;540;49.448;8.612;2022-11-23T06:54:47;7.80;99.90
1107;DHT22;540;49.448;8.612;2022-11-23T06:57:15;7.80;99.90
1107;DHT22;540;49.448;8.612;2022-11-23T06:59:43;7.60;99.90
1107;DHT22;540;49.448;8.612;2022-11-23T07:02:13;7.50;99.90
1107;DHT22;540;49.448;8.612;2022-11-23T07:04:41;7.50;99.90
1107;DHT22;540;49.448;8.612;2022-11-23T07:07:08;7.60;99.90
1107;DHT22;540;49.448;8.612;2022-11-23T07:09:36;7.70;99.90
1107;DHT22;540;49.448;8.612;2022-11-23T07:12:05;7.70;99.90
1107;DHT22;540;49.448;8.612;2022-11-23T07:14:33;7.60;99.90
1107;DHT22;540;49.448;8.612;2022-11-23T07:17:01;8.00;99.90
1107;DHT22;540;49.448;8.612;2022-11-23T07:19:30;7.60;99.90
1107;DHT22;540;49.448;8.612;2022-11-23T07:21:58;7.80;99.90
1107;DHT22;540;49.448;8.612;2022-11-23T07:24:26;7.70;99.90
1107;DHT22;540;49.448;8.612;2022-11-23T07:27:02;7.70;99.90
1107;DHT22;540;49.448;8.612;2022-11-23T07:29:30;7.50;99.90
1107;DHT22;540;49.448;8.612;2022-11-23T07:31:58;8.10;99.90
1107;DHT22;540;49.448;8.612;2022-11-23T07:34:26;8.00;99.90
1107;DHT22;540;49.448;8.612;2022-11-23T07:36:56;7.70;99.90
1107;DHT22;540;49.448;8.612;2022-11-23T07:39:27;8.10;99.90
1107;DHT22;540;49.448;8.612;2022-11-23T07:42:15;8.10;99.90
1107;DHT22;540;49.448;8.612;2022-11-23T07:45:00;8.10;99.90
1107;DHT22;540;49.448;8.612;2022-11-23T07:47:28;8.40;99.90
1107;DHT22;540;49.448;8.612;2022-11-23T07:49:56;8.60;99.90
1107;DHT22;540;49.448;8.612;2022-11-23T07:52:25;9.20;99.90
1107;DHT22;540;49.448;8.612;2022-11-23T07:54:53;10.10;99.90
1107;DHT22;540;49.448;8.612;2022-11-23T07:57:21;11.20;97.40
1107;DHT22;540;49.448;8.612;2022-11-23T07:59:48;11.70;94.10
1107;DHT22;540;49.448;8.612;2022-11-23T08:02:16;12.30;90.30
1107;DHT22;540;49.448;8.612;2022-11-23T08:04:44;13.00;86.40
1107;DHT22;540;49.448;8.612;2022-11-23T08:07:12;13.70;80.70
1107;DHT22;540;49.448;8.612;2022-11-23T08:09:41;14.40;74.90
1107;DHT22;540;49.448;8.612;2022-11-23T08:12:09;14.40;73.40
1107;DHT22;540;49.448;8.612;2022-11-23T08:14:37;15.00;70.60
1107;DHT22;540;49.448;8.612;2022-11-23T08:17:05;15.30;68.20
1107;DHT22;540;49.448;8.612;2022-11-23T08:19:32;15.60;67.60
1107;DHT22;540;49.448;8.612;2022-11-23T08:22:00;15.70;66.20
1107;DHT22;540;49.448;8.612;2022-11-23T08:24:28;15.90;65.40
1107;DHT22;540;49.448;8.612;2022-11-23T08:26:58;16.50;62.40
1107;DHT22;540;49.448;8.612;2022-11-23T08:29:26;17.20;60.40
1107;DHT22;540;49.448;8.612;2022-11-23T08:31:54;17.60;59.20
1107;DHT22;540;49.448;8.612;2022-11-23T08:34:22;17.70;57.80
1107;DHT22;540;49.448;8.612;2022-11-23T08:36:49;17.60;57.30
1107;DHT22;540;49.448;8.612;2022-11-23T08:39:17;17.60;57.30
1107;DHT22;540;49.448;8.612;2022-11-23T08:41:46;18.20;55.60
1107;DHT22;540;49.448;8.612;2022-11-23T08:44:15;17.80;56.10
1107;DHT22;540;49.448;8.612;2022-11-23T08:46:43;18.10;55.70
1107;DHT22;540;49.448;8.612;2022-11-23T08:49:10;18.20;55.60
1107;DHT22;540;49.448;8.612;2022-11-23T08:51:38;18.30;55.40
1107;DHT22;540;49.448;8.612;2022-11-23T08:54:11;18.70;54.30
1107;DHT22;540;49.448;8.612;2022-11-23T08:56:39;18.70;53.70
1107;DHT22;540;49.448;8.612;2022-11-23T08:59:07;19.00;53.10
1107;DHT22;540;49.448;8.612;2022-11-23T09:01:37;18.70;53.20
1107;DHT22;540;49.448;8.612;2022-11-23T09:04:07;19.20;53.20
1107;DHT22;540;49.448;8.612;2022-11-23T09:06:42;19.70;52.40
1107;DHT22;540;49.448;8.612;2022-11-23T09:09:12;19.80;50.70
1107;DHT22;540;49.448;8.612;2022-11-23T09:11:42;19.70;50.50
1107;DHT22;540;49.448;8.612;2022-11-23T09:14:12;19.60;50.90
1107;DHT22;540;49.448;8.612;2022-11-23T09:16:44;19.00;49.70
1107;DHT22;540;49.448;8.612;2022-11-23T09:19:13;18.70;50.80
1107;DHT22;540;49.448;8.612;2022-11-23T09:21:43;18.40;51.10
1107;DHT22;540;49.448;8.612;2022-11-23T09:24:13;17.70;51.80
1107;DHT22;540;49.448;8.612;2022-11-23T09:26:43;17.50;52.90
1107;DHT22;540;49.448;8.612;2022-11-23T09:29:13;17.40;53.10
1107;DHT22;540;49.448;8.612;2022-11-23T09:31:44;17.00;53.70
1107;DHT22;540;49.448;8.612;2022-11-23T09:34:14;17.50;53.60
1107;DHT22;540;49.448;8.612;2022-11-23T09:36:44;17.10;53.40
1107;DHT22;540;49.448;8.612;2022-11-23T09:39:13;16.80;53.90
1107;DHT22;540;49.448;8.612;2022-11-23T09:42:13;16.40;55.90
1107;DHT22;540;49.448;8.612;2022-11-23T09:44:57;17.00;56.30
1107;DHT22;540;49.448;8.612;2022-11-23T09:47:47;16.60;56.10
1107;DHT22;540;49.448;8.612;2022-11-23T09:50:26;17.20;55.20
1107;DHT22;540;49.448;8.612;2022-11-23T09:52:57;17.20;54.20
1107;DHT22;540;49.448;8.612;2022-11-23T09:55:33;17.20;53.50
1107;DHT22;540;49.448;8.612;2022-11-23T09:58:05;15.80;54.40
1107;DHT22;540;49.448;8.612;2022-11-23T10:00:36;14.50;57.80
1107;DHT22;540;49.448;8.612;2022-11-23T10:03:10;13.80;61.60
1107;DHT22;540;49.448;8.612;2022-11-23T10:05:40;12.80;65.20
1107;DHT22;540;49.448;8.612;2022-11-23T10:08:17;13.00;69.50
1107;DHT22;540;49.448;8.612;2022-11-23T10:10:52;12.40;71.60
1107;DHT22;540;49.448;8.612;2022-11-23T10:13:33;11.90;76.00
1107;DHT22;540;49.448;8.612;2022-11-23T10:16:23;11.50;77.60
1107;DHT22;540;49.448;8.612;2022-11-23T10:19:02;11.20;81.60
1107;DHT22;540;49.448;8.612;2022-11-23T10:21:37;11.20;83.10
1107;DHT22;540;49.448;8.612;2022-11-23T10:24:16;10.90;84.30
1107;DHT22;540;49.448;8.612;2022-11-23T10:26:48;10.60;86.10
1107;DHT22;540;49.448;8.612;2022-11-23T10:29:20;10.50;88.30
1107;DHT22;540;49.448;8.612;2022-11-23T10:31:49;10.60;89.20
1107;DHT22;540;49.448;8.612;2022-11-23T10:34:35;10.80;89.60
1107;DHT22;540;49.448;8.612;2022-11-23T10:37:08;11.00;88.20
1107;DHT22;540;49.448;8.612;2022-11-23T10:39:38;10.70;88.10
1107;DHT22;540;49.448;8.612;2022-11-23T10:42:16;11.10;88.50
1107;DHT22;540;49.448;8.612;2022-11-23T10:44:47;10.90;88.40
1107;DHT22;540;49.448;8.612;2022-11-23T10:47:35;10.80;88.00
1107;DHT22;540;49.448;8.612;2022-11-23T10:50:20;10.90;89.70
1107;DHT22;540;49.448;8.612;2022-11-23T10:52:50;11.00;90.50
1107;DHT22;540;49.448;8.612;2022-11-23T10:55:24;10.70;90.40
1107;DHT22;540;49.448;8.612;2022-11-23T10:57:53;10.80;89.70
1107;DHT22;540;49.448;8.612;2022-11-23T11:00:22;10.90;89.90
1107;DHT22;540;49.448;8.612;2022-11-23T11:02:57;11.00;90.40
1107;DHT22;540;49.448;8.612;2022-11-23T11:05:34;11.00;89.40
1107;DHT22;540;49.448;8.612;2022-11-23T11:08:26;11.00;89.80
1107;DHT22;540;49.448;8.612;2022-11-23T11:10:58;11.10;87.60
1107;DHT22;540;49.448;8.612;2022-11-23T11:13:29;11.30;89.30
1107;DHT22;540;49.448;8.612;2022-11-23T11:15:59;11.10;89.00
1107;DHT22;540;49.448;8.612;2022-11-23T11:18:29;11.30;88.30
1107;DHT22;540;49.448;8.612;2022-11-23T11:21:02;11.50;87.10
1107;DHT22;540;49.448;8.612;2022-11-23T11:23:30;11.10;88.10
1107;DHT22;540;49.448;8.612;2022-11-23T11:26:09;11.10;87.60
1107;DHT22;540;49.448;8.612;2022-11-23T11:28:40;11.00;88.90
1107;DHT22;540;49.448;8.612;2022-11-23T11:31:24;11.40;90.10
1107;DHT22;540;49.448;8.612;2022-11-23T11:34:00;11.40;87.90
1107;DHT22;540;49.448;8.612;2022-11-23T11:36:38;11.60;85.90
1107;DHT22;540;49.448;8.612;2022-11-23T11:39:13;11.70;86.30
1107;DHT22;540;49.448;8.612;2022-11-23T11:41:46;11.70;84.30
1107;DHT22;540;49.448;8.612;2022-11-23T11:44:19;11.60;84.30
1107;DHT22;540;49.448;8.612;2022-11-23T11:46:52;11.80;84.20
1107;DHT22;540;49.448;8.612;2022-11-23T11:49:24;12.00;82.60
1107;DHT22;540;49.448;8.612;2022-11-23T11:51:58;11.90;82.30
1107;DHT22;540;49.448;8.612;2022-11-23T11:54:33;11.50;81.70
1107;DHT22;540;49.448;8.612;2022-11-23T11:57:06;12.00;80.80
1107;DHT22;540;49.448;8.612;2022-11-23T11:59:39;12.30;80.90
1107;DHT22;540;49.448;8.612;2022-11-23T12:02:17;12.40;79.20
1107;DHT22;540;49.448;8.612;2022-11-23T12:04:53;13.10;77.90
1107;DHT22;540;49.448;8.612;2022-11-23T12:07:28;13.60;74.40
1107;DHT22;540;49.448;8.612;2022-11-23T12:10:02;14.40;70.30
1107;DHT22;540;49.448;8.612;2022-11-23T12:12:33;14.90;67.50
1107;DHT22;540;49.448;8.612;2022-11-23T12:15:02;14.80;64.90
1107;DHT22;540;49.448;8.612;2022-11-23T12:20:54;15.10;62.60
1107;DHT22;540;49.448;8.612;2022-11-23T12:25:31;15.10;64.60
1107;DHT22;540;49.448;8.612;2022-11-23T12:28:18;15.30;64.00
1107;DHT22;540;49.448;8.612;2022-11-23T12:30:54;15.00;61.10
1107;DHT22;540;49.448;8.612;2022-11-23T12:36:34;15.20;61.50
1107;DHT22;540;49.448;8.612;2022-11-23T12:39:18;14.80;61.60
1107;DHT22;540;49.448;8.612;2022-11-23T12:41:55;15.40;61.70
1107;DHT22;540;49.448;8.612;2022-11-23T12:47:37;15.70;61.50
1107;DHT22;540;49.448;8.612;2022-11-23T12:50:16;15.60;61.70
1107;DHT22;540;49.448;8.612;2022-11-23T12:52:59;15.70;61.40
1107;DHT22;540;49.448;8.612;2022-11-23T12:55:37;15.50;62.70
1107;DHT22;540;49.448;8.612;2022-11-23T12:58:17;15.40;62.70
1107;DHT22;540;49.448;8.612;2022-11-23T13:00:51;15.90;62.50
1107;DHT22;540;49.448;8.612;2022-11-23T13:03:43;15.40;63.10
1107;DHT22;540;49.448;8.612;2022-11-23T13:06:43;15.50;62.80
1107;DHT22;540;49.448;8.612;2022-11-23T13:12:52;15.60;62.10
1107;DHT22;540;49.448;8.612;2022-11-23T13:15:41;15.20;61.80
1107;DHT22;540;49.448;8.612;2022-11-23T13:18:18;15.40;60.70
1107;DHT22;540;49.448;8.612;2022-11-23T13:21:08;15.50;59.40
1107;DHT22;540;49.448;8.612;2022-11-23T13:23:38;15.10;58.40
1107;DHT22;540;49.448;8.612;2022-11-23T13:26:14;15.00;57.90
1107;DHT22;540;49.448;8.612;2022-11-23T13:28:42;15.20;57.60
1107;DHT22;540;49.448;8.612;2022-11-23T13:31:23;15.20;56.90
1107;DHT22;540;49.448;8.612;2022-11-23T13:33:53;14.80;55.90
1107;DHT22;540;49.448;8.612;2022-11-23T13:36:41;15.00;56.00
1107;DHT22;540;49.448;8.612;2022-11-23T13:40:00;15.30;55.80
1107;DHT22;540;49.448;8.612;2022-11-23T13:42:31;15.00;55.20
1107;DHT22;540;49.448;8.612;2022-11-23T13:45:21;15.00;55.80
1107;DHT22;540;49.448;8.612;2022-11-23T13:48:18;14.70;56.10
1107;DHT22;540;49.448;8.612;2022-11-23T13:51:07;14.90;55.60
1107;DHT22;540;49.448;8.612;2022-11-23T13:53:37;14.70;55.50
1107;DHT22;540;49.448;8.612;2022-11-23T13:56:20;14.70;55.30
1107;DHT22;540;49.448;8.612;2022-11-23T13:58:52;15.00;54.70
1107;DHT22;540;49.448;8.612;2022-11-23T14:04:27;14.30;54.30
1107;DHT22;540;49.448;8.612;2022-11-23T14:06:59;14.30;54.60
1107;DHT22;540;49.448;8.612;2022-11-23T14:09:33;13.50;55.50
1107;DHT22;540;49.448;8.612;2022-11-23T14:12:05;13.10;55.80
1107;DHT22;540;49.448;8.612;2022-11-23T14:14:44;13.40;57.00
1107;DHT22;540;49.448;8.612;2022-11-23T14:20:51;13.10;59.00
1107;DHT22;540;49.448;8.612;2022-11-23T14:23:37;12.40;58.90
1107;DHT22;540;49.448;8.612;2022-11-23T14:26:19;12.30;57.90
1107;DHT22;540;49.448;8.612;2022-11-23T14:29:00;12.70;58.80
1107;DHT22;540;49.448;8.612;2022-11-23T14:31:36;11.80;58.90
1107;DHT22;540;49.448;8.612;2022-11-23T14:34:17;11.90;59.90
1107;DHT22;540;49.448;8.612;2022-11-23T14:36:56;11.90;61.00
1107;DHT22;540;49.448;8.612;2022-11-23T14:39:40;12.30;61.60
1107;DHT22;540;49.448;8.612;2022-11-23T14:42:16;11.40;62.00
1107;DHT22;540;49.448;8.612;2022-11-23T14:44:44;11.90;62.90
1107;DHT22;540;49.448;8.612;2022-11-23T14:47:13;11.90;63.60
1107;DHT22;540;49.448;8.612;2022-11-23T14:49:51;11.80;65.10
1107;DHT22;540;49.448;8.612;2022-11-23T14:52:21;11.70;63.90
1107;DHT22;540;49.448;8.612;2022-11-23T14:54:52;11.50;64.30
1107;DHT22;540;49.448;8.612;2022-11-23T14:57:21;11.70;65.00
1107;DHT22;540;49.448;8.612;2022-11-23T14:59:53;10.90;64.80
1107;DHT22;540;49.448;8.612;2022-11-23T15:02:24;11.50;66.90
1107;DHT22;540;49.448;8.612;2022-11-23T15:05:03;11.30;66.30
1107;DHT22;540;49.448;8.612;2022-11-23T15:07:41;10.80;67.10
1107;DHT22;540;49.448;8.612;2022-11-23T15:10:27;10.60;67.20
1107;DHT22;540;49.448;8.612;2022-11-23T15:12:57;11.30;67.90
1107;DHT22;540;49.448;8.612;2022-11-23T15:15:27;11.20;68.60
1107;DHT22;540;49.448;8.612;2022-11-23T15:17:57;10.40;67.80
1107;DHT22;540;49.448;8.612;2022-11-23T15:20:27;11.20;68.80
1107;DHT22;540;49.448;8.612;2022-11-23T15:23:00;11.20;69.10
1107;DHT22;540;49.448;8.612;2022-11-23T15:25:28;11.00;69.40
1107;DHT22;540;49.448;8.612;2022-11-23T15:27:56;10.30;69.10
1107;DHT22;540;49.448;8.612;2022-11-23T15:30:26;10.70;69.90
1107;DHT22;540;49.448;8.612;2022-11-23T15:32:56;10.60;70.00
1107;DHT22;540;49.448;8.612;2022-11-23T15:35:28;10.80;71.00
1107;DHT22;540;49.448;8.612;2022-11-23T15:37:57;10.80;71.10
1107;DHT22;540;49.448;8.612;2022-11-23T15:40:30;10.90;71.60
1107;DHT22;540;49.448;8.612;2022-11-23T15:42:58;10.80;72.60
1107;DHT22;540;49.448;8.612;2022-11-23T15:45:37;10.90;73.20
1107;DHT22;540;49.448;8.612;2022-11-23T15:48:10;10.70;73.60
1107;DHT22;540;49.448;8.612;2022-11-23T15:50:46;10.80;74.70
1107;DHT22;540;49.448;8.612;2022-11-23T15:53:14;10.50;74.70
1107;DHT22;540;49.448;8.612;2022-11-23T15:55:43;10.70;74.90
1107;DHT22;540;49.448;8.612;2022-11-23T15:58:15;10.80;75.40
1107;DHT22;540;49.448;8.612;2022-11-23T16:00:48;10.70;75.60
1107;DHT22;540;49.448;8.612;2022-11-23T16:03:27;10.50;76.00
1107;DHT22;540;49.448;8.612;2022-11-23T16:06:17;10.40;76.10
1107;DHT22;540;49.448;8.612;2022-11-23T16:08:45;10.80;76.70
1107;DHT22;540;49.448;8.612;2022-11-23T16:11:26;11.00;77.10
1107;DHT22;540;49.448;8.612;2022-11-23T16:14:12;10.40;76.40
1107;DHT22;540;49.448;8.612;2022-11-23T16:16:41;10.70;77.30
1107;DHT22;540;49.448;8.612;2022-11-23T16:19:27;11.10;77.90
1107;DHT22;540;49.448;8.612;2022-11-23T16:21:59;10.70;76.80
1107;DHT22;540;49.448;8.612;2022-11-23T16:24:30;10.80;77.70
1107;DHT22;540;49.448;8.612;2022-11-23T16:27:01;10.60;77.10
1107;DHT22;540;49.448;8.612;2022-11-23T16:29:38;10.90;76.60
1107;DHT22;540;49.448;8.612;2022-11-23T16:32:24;10.50;76.20
1107;DHT22;540;49.448;8.612;2022-11-23T16:34:53;10.70;76.70
1107;DHT22;540;49.448;8.612;2022-11-23T16:37:21;11.10;76.70
1107;DHT22;540;49.448;8.612;2022-11-23T16:39:49;11.10;76.50
1107;DHT22;540;49.448;8.612;2022-11-23T16:42:18;10.90;76.00
1107;DHT22;540;49.448;8.612;2022-11-23T16:44:46;11.00;77.00
1107;DHT22;540;49.448;8.612;2022-11-23T16:47:22;10.50;76.10
1107;DHT22;540;49.448;8.612;2022-11-23T16:49:53;11.20;77.00
1107;DHT22;540;49.448;8.612;2022-11-23T16:52:22;10.40;77.70
1107;DHT22;540;49.448;8.612;2022-11-23T16:54:50;10.80;78.40
1107;DHT22;540;49.448;8.612;2022-11-23T16:57:31;10.80;79.80
1107;DHT22;540;49.448;8.612;2022-11-23T17:00:02;10.80;79.00
1107;DHT22;540;49.448;8.612;2022-11-23T17:02:31;11.00;81.60
1107;DHT22;540;49.448;8.612;2022-11-23T17:04:59;10.90;84.10
1107;DHT22;540;49.448;8.612;2022-11-23T17:07:27;11.00;86.20
1107;DHT22;540;49.448;8.612;2022-11-23T17:09:55;11.00;90.20
1107;DHT22;540;49.448;8.612;2022-11-23T17:12:24;10.60;92.10
1107;DHT22;540;49.448;8.612;2022-11-23T17:14:53;10.70;93.90
1107;DHT22;540;49.448;8.612;2022-11-23T17:17:22;10.00;95.00